sensor_id;sensor_type;location;lat;lon;timestamp;temperature;humidity
48488;DHT22;34289;48.572;13.378;2023-11-18T00:02:23;0.70;99.90
48488;DHT22;34289;48.572;13.378;2023-11-18T00:04:50;0.70;99.90
48488;DHT22;34289;48.572;13.378;2023-11-18T00:07:16;0.40;99.90
48488;DHT22;34289;48.572;13.378;2023-11-18T00:09:42;0.40;99.90
48488;DHT22;34289;48.572;13.378;2023-11-18T00:12:12;0.40;99.90
48488;DHT22;34289;48.572;13.378;2023-11-18T00:14:37;0.10;99.90
48488;DHT22;34289;48.572;13.378;2023-11-18T00:17:03;0.20;99.90
48488;DHT22;34289;48.572;13.378;2023-11-18T00:19:29;0.30;99.90
48488;DHT22;34289;48.572;13.378;2023-11-18T00:21:55;0.90;99.90
48488;DHT22;34289;48.572;13.378;2023-11-18T00:24:21;0.50;99.90
48488;DHT22;34289;48.572;13.378;2023-11-18T00:26:46;0.50;99.90
48488;DHT22;34289;48.572;13.378;2023-11-18T00:29:15;0.50;99.90
48488;DHT22;34289;48.572;13.378;2023-11-18T00:31:41;0.30;99.90
48488;DHT22;34289;48.572;13.378;2023-11-18T00:34:06;0.40;99.90
48488;DHT22;34289;48.572;13.378;2023-11-18T00:36:32;0.50;99.90
48488;DHT22;34289;48.572;13.378;2023-11-18T00:38:57;0.90;99.90
48488;DHT22;34289;48.572;13.378;2023-11-18T00:41:23;0.80;99.90
48488;DHT22;34289;48.572;13.378;2023-11-18T00:43:48;1.00;99.90
48488;DHT22;34289;48.572;13.378;2023-11-18T00:46:14;0.90;99.90
48488;DHT22;34289;48.572;13.378;2023-11-18T00:48:40;1.00;99.90
48488;DHT22;34289;48.572;13.378;2023-11-18T00:51:08;0.70;99.90
48488;DHT22;34289;48.572;13.378;2023-11-18T00:53:34;1.00;99.90
48488;DHT22;34289;48.572;13.378;2023-11-18T00:55:59;1.00;99.90
48488;DHT22;34289;48.572;13.378;2023-11-18T00:58:26;0.90;99.90
48488;DHT22;34289;48.572;13.378;2023-11-18T01:00:52;1.00;99.90
48488;DHT22;34289;48.572;13.378;2023-11-18T01:03:17;0.70;99.90
48488;DHT22;34289;48.572;13.378;2023-11-18T01:05:43;1.10;99.90
48488;DHT22;34289;48.572;13.378;2023-11-18T01:08:09;0.60;99.90
48488;DHT22;34289;48.572;13.378;2023-11-18T01:10:35;0.80;99.90
48488;DHT22;34289;48.572;13.378;2023-11-18T01:13:01;0.90;99.90
48488;DHT22;34289;48.572;13.378;2023-11-18T01:15:27;0.70;99.90
48488;DHT22;34289;48.572;13.378;2023-11-18T01:17:52;0.80;99.90
48488;DHT22;34289;48.572;13.378;2023-11-18T01:20:18;0.90;99.90
48488;DHT22;34289;48.572;13.378;2023-11-18T01:22:47;0.80;99.90
48488;DHT22;34289;48.572;13.378;2023-11-18T01:25:14;0.80;99.90
48488;DHT22;34289;48.572;13.378;2023-11-18T01:27:43;0.90;99.90
48488;DHT22;34289;48.572;13.378;2023-11-18T01:30:13;0.80;99.90
48488;DHT22;34289;48.572;13.378;2023-11-18T01:32:38;0.70;99.90
48488;DHT22;34289;48.572;13.378;2023-11-18T01:35:08;0.90;99.90
48488;DHT22;34289;48.572;13.378;2023-11-18T01:37:33;1.00;99.90
48488;DHT22;34289;48.572;13.378;2023-11-18T01:39:59;1.30;99.90
48488;DHT22;34289;48.572;13.378;2023-11-18T01:42:25;1.10;99.90
48488;DHT22;34289;48.572;13.378;2023-11-18T01:44:50;1.30;99.90
48488;DHT22;34289;48.572;13.378;2023-11-18T01:47:16;0.60;99.90
48488;DHT22;34289;48.572;13.378;2023-11-18T01:49:42;0.70;99.90
48488;DHT22;34289;48.572;13.378;2023-11-18T01:52:10;0.90;99.90
48488;DHT22;34289;48.572;13.378;2023-11-18T01:54:39;0.70;99.90
48488;DHT22;34289;48.572;13.378;2023-11-18T01:57:05;0.60;99.90
48488;DHT22;34289;48.572;13.378;2023-11-18T01:59:35;0.50;99.90
48488;DHT22;34289;48.572;13.378;2023-11-18T02:02:01;0.70;99.90
48488;DHT22;34289;48.572;13.378;2023-11-18T02:04:27;0.60;99.90
48488;DHT22;34289;48.572;13.378;2023-11-18T02:06:56;0.70;99.90
48488;DHT22;34289;48.572;13.378;2023-11-18T02:09:23;1.00;99.90
48488;DHT22;34289;48.572;13.378;2023-11-18T02:14:43;0.80;99.90
48488;DHT22;34289;48.572;13.378;2023-11-18T02:17:13;0.90;99.90
48488;DHT22;34289;48.572;13.378;2023-11-18T02:19:40;1.10;99.90
48488;DHT22;34289;48.572;13.378;2023-11-18T02:22:07;1.20;99.90
48488;DHT22;34289;48.572;13.378;2023-11-18T02:24:33;1.20;99.90
48488;DHT22;34289;48.572;13.378;2023-11-18T02:27:03;1.10;99.90
48488;DHT22;34289;48.572;13.378;2023-11-18T02:29:34;1.00;99.90
48488;DHT22;34289;48.572;13.378;2023-11-18T02:32:20;1.00;99.90
48488;DHT22;34289;48.572;13.378;2023-11-18T02:35:07;1.10;99.90
48488;DHT22;34289;48.572;13.378;2023-11-18T02:37:39;1.00;99.90
48488;DHT22;34289;48.572;13.378;2023-11-18T02:40:09;1.00;99.90
48488;DHT22;34289;48.572;13.378;2023-11-18T02:42:44;1.00;99.90
48488;DHT22;34289;48.572;13.378;2023-11-18T02:45:12;1.20;99.90
48488;DHT22;34289;48.572;13.378;2023-11-18T02:47:43;1.20;99.90
48488;DHT22;34289;48.572;13.378;2023-11-18T02:50:09;1.40;99.90
48488;DHT22;34289;48.572;13.378;2023-11-18T02:52:39;1.50;99.90
48488;DHT22;34289;48.572;13.378;2023-11-18T02:55:06;1.70;99.90
48488;DHT22;34289;48.572;13.378;2023-11-18T02:57:33;1.70;99.90
48488;DHT22;34289;48.572;13.378;2023-11-18T02:59:59;1.60;99.90
48488;DHT22;34289;48.572;13.378;2023-11-18T03:02:28;1.60;99.90
48488;DHT22;34289;48.572;13.378;2023-11-18T03:04:56;1.60;99.90
48488;DHT22;34289;48.572;13.378;2023-11-18T03:07:22;1.80;99.90
48488;DHT22;34289;48.572;13.378;2023-11-18T03:09:47;1.80;99.90
48488;DHT22;34289;48.572;13.378;2023-11-18T03:12:13;1.80;99.90
48488;DHT22;34289;48.572;13.378;2023-11-18T03:14:39;1.80;99.90
48488;DHT22;34289;48.572;13.378;2023-11-18T03:17:04;1.70;99.90
48488;DHT22;34289;48.572;13.378;2023-11-18T03:19:33;1.90;99.90
48488;DHT22;34289;48.572;13.378;2023-11-18T03:22:00;1.90;99.90
48488;DHT22;34289;48.572;13.378;2023-11-18T03:24:30;1.90;99.90
48488;DHT22;34289;48.572;13.378;2023-11-18T03:26:55;1.20;99.90
48488;DHT22;34289;48.572;13.378;2023-11-18T03:29:21;1.90;99.90
48488;DHT22;34289;48.572;13.378;2023-11-18T03:31:47;1.80;99.90
48488;DHT22;34289;48.572;13.378;2023-11-18T03:34:15;2.10;99.90
48488;DHT22;34289;48.572;13.378;2023-11-18T03:36:40;2.00;99.90
48488;DHT22;34289;48.572;13.378;2023-11-18T03:39:06;1.80;99.90
48488;DHT22;34289;48.572;13.378;2023-11-18T03:41:32;1.50;99.90
48488;DHT22;34289;48.572;13.378;2023-11-18T03:43:57;1.50;99.90
48488;DHT22;34289;48.572;13.378;2023-11-18T03:46:23;1.70;99.90
48488;DHT22;34289;48.572;13.378;2023-11-18T03:48:49;1.80;99.90
48488;DHT22;34289;48.572;13.378;2023-11-18T03:51:14;1.60;99.90
48488;DHT22;34289;48.572;13.378;2023-11-18T03:53:42;1.70;99.90
48488;DHT22;34289;48.572;13.378;2023-11-18T03:56:08;1.70;99.90
48488;DHT22;34289;48.572;13.378;2023-11-18T03:58:34;2.00;99.90
48488;DHT22;34289;48.572;13.378;2023-11-18T04:01:01;1.80;99.90
48488;DHT22;34289;48.572;13.378;2023-11-18T04:03:27;1.70;99.90
48488;DHT22;34289;48.572;13.378;2023-11-18T04:05:52;2.00;99.90
48488;DHT22;34289;48.572;13.378;2023-11-18T04:08:18;1.90;99.90
48488;DHT22;34289;48.572;13.378;2023-11-18T04:10:44;1.90;99.90
48488;DHT22;34289;48.572;13.378;2023-11-18T04:13:09;2.00;99.90
48488;DHT22;34289;48.572;13.378;2023-11-18T04:15:35;2.20;99.90
48488;DHT22;34289;48.572;13.378;2023-11-18T04:18:01;1.80;99.90
48488;DHT22;34289;48.572;13.378;2023-11-18T04:20:27;1.90;99.90
48488;DHT22;34289;48.572;13.378;2023-11-18T04:22:52;2.10;99.90
48488;DHT22;34289;48.572;13.378;2023-11-18T04:25:19;2.20;99.90
48488;DHT22;34289;48.572;13.378;2023-11-18T04:27:46;2.00;99.90
48488;DHT22;34289;48.572;13.378;2023-11-18T04:30:12;1.60;99.90
48488;DHT22;34289;48.572;13.378;2023-11-18T04:32:38;1.80;99.90
48488;DHT22;34289;48.572;13.378;2023-11-18T04:35:04;1.80;99.90
48488;DHT22;34289;48.572;13.378;2023-11-18T04:37:35;1.50;99.90
48488;DHT22;34289;48.572;13.378;2023-11-18T04:40:06;1.70;99.90
48488;DHT22;34289;48.572;13.378;2023-11-18T04:42:34;1.50;99.90
48488;DHT22;34289;48.572;13.378;2023-11-18T04:45:00;1.70;99.90
48488;DHT22;34289;48.572;13.378;2023-11-18T04:47:26;1.70;99.90
48488;DHT22;34289;48.572;13.378;2023-11-18T04:49:52;1.70;99.90
48488;DHT22;34289;48.572;13.378;2023-11-18T04:52:17;1.60;99.90
48488;DHT22;34289;48.572;13.378;2023-11-18T04:54:44;1.80;99.90
48488;DHT22;34289;48.572;13.378;2023-11-18T04:57:09;1.80;99.90
48488;DHT22;34289;48.572;13.378;2023-11-18T04:59:36;2.00;99.90
48488;DHT22;34289;48.572;13.378;2023-11-18T05:02:02;1.90;99.90
48488;DHT22;34289;48.572;13.378;2023-11-18T05:04:28;2.10;99.90
48488;DHT22;34289;48.572;13.378;2023-11-18T05:06:54;1.90;99.90
48488;DHT22;34289;48.572;13.378;2023-11-18T05:09:19;1.70;99.90
48488;DHT22;34289;48.572;13.378;2023-11-18T05:11:46;1.90;99.90
48488;DHT22;34289;48.572;13.378;2023-11-18T05:14:11;2.10;99.90
48488;DHT22;34289;48.572;13.378;2023-11-18T05:16:37;1.90;99.90
48488;DHT22;34289;48.572;13.378;2023-11-18T05:19:03;2.00;99.90
48488;DHT22;34289;48.572;13.378;2023-11-18T05:21:28;2.10;99.90
48488;DHT22;34289;48.572;13.378;2023-11-18T05:23:54;1.90;99.90
48488;DHT22;34289;48.572;13.378;2023-11-18T05:26:20;1.80;99.90
48488;DHT22;34289;48.572;13.378;2023-11-18T05:28:46;1.80;99.90
48488;DHT22;34289;48.572;13.378;2023-11-18T05:31:11;1.60;99.90
48488;DHT22;34289;48.572;13.378;2023-11-18T05:33:37;1.60;99.90
48488;DHT22;34289;48.572;13.378;2023-11-18T05:36:03;1.60;99.90
48488;DHT22;34289;48.572;13.378;2023-11-18T05:38:30;1.50;99.90
48488;DHT22;34289;48.572;13.378;2023-11-18T05:41:00;1.80;99.90
48488;DHT22;34289;48.572;13.378;2023-11-18T05:43:30;1.90;99.90
48488;DHT22;34289;48.572;13.378;2023-11-18T05:46:06;1.80;99.90
48488;DHT22;34289;48.572;13.378;2023-11-18T05:48:47;1.60;99.90
48488;DHT22;34289;48.572;13.378;2023-11-18T05:51:13;1.50;99.90
48488;DHT22;34289;48.572;13.378;2023-11-18T05:53:42;1.80;99.90
48488;DHT22;34289;48.572;13.378;2023-11-18T05:56:09;1.60;99.90
48488;DHT22;34289;48.572;13.378;2023-11-18T05:58:38;1.70;99.90
48488;DHT22;34289;48.572;13.378;2023-11-18T06:01:08;1.70;99.90
48488;DHT22;34289;48.572;13.378;2023-11-18T06:03:35;2.00;99.90
48488;DHT22;34289;48.572;13.378;2023-11-18T06:06:05;1.60;99.90
48488;DHT22;34289;48.572;13.378;2023-11-18T06:08:33;1.30;99.90
48488;DHT22;34289;48.572;13.378;2023-11-18T06:10:58;1.30;99.90
48488;DHT22;34289;48.572;13.378;2023-11-18T06:13:24;1.30;99.90
48488;DHT22;34289;48.572;13.378;2023-11-18T06:15:49;1.30;99.90
48488;DHT22;34289;48.572;13.378;2023-11-18T06:18:17;1.20;99.90
48488;DHT22;34289;48.572;13.378;2023-11-18T06:20:44;1.20;99.90
48488;DHT22;34289;48.572;13.378;2023-11-18T06:23:09;1.50;99.90
48488;DHT22;34289;48.572;13.378;2023-11-18T06:25:35;1.10;99.90
48488;DHT22;34289;48.572;13.378;2023-11-18T06:28:01;1.10;99.90
48488;DHT22;34289;48.572;13.378;2023-11-18T06:30:27;1.30;99.90
48488;DHT22;34289;48.572;13.378;2023-11-18T06:32:53;1.10;99.90
48488;DHT22;34289;48.572;13.378;2023-11-18T06:35:19;1.10;99.90
48488;DHT22;34289;48.572;13.378;2023-11-18T06:37:46;1.70;99.90
48488;DHT22;34289;48.572;13.378;2023-11-18T06:40:13;1.40;99.90
48488;DHT22;34289;48.572;13.378;2023-11-18T06:42:45;1.10;99.90
48488;DHT22;34289;48.572;13.378;2023-11-18T06:45:14;1.10;99.90
48488;DHT22;34289;48.572;13.378;2023-11-18T06:47:40;1.00;99.90
48488;DHT22;34289;48.572;13.378;2023-11-18T06:50:10;1.20;99.90
48488;DHT22;34289;48.572;13.378;2023-11-18T06:52:40;1.20;99.90
48488;DHT22;34289;48.572;13.378;2023-11-18T06:55:07;1.30;99.90
48488;DHT22;34289;48.572;13.378;2023-11-18T06:57:35;1.30;99.90
48488;DHT22;34289;48.572;13.378;2023-11-18T07:00:01;1.60;99.90
48488;DHT22;34289;48.572;13.378;2023-11-18T07:02:33;1.50;99.90
48488;DHT22;34289;48.572;13.378;2023-11-18T07:04:58;1.60;99.90
48488;DHT22;34289;48.572;13.378;2023-11-18T07:07:24;1.60;99.90
48488;DHT22;34289;48.572;13.378;2023-11-18T07:09:49;1.60;99.90
48488;DHT22;34289;48.572;13.378;2023-11-18T07:12:15;1.70;99.90
48488;DHT22;34289;48.572;13.378;2023-11-18T07:14:40;1.80;99.90
48488;DHT22;34289;48.572;13.378;2023-11-18T07:17:06;1.90;99.90
48488;DHT22;34289;48.572;13.378;2023-11-18T07:19:33;1.80;99.90
48488;DHT22;34289;48.572;13.378;2023-11-18T07:21:59;1.60;99.90
48488;DHT22;34289;48.572;13.378;2023-11-18T07:24:25;1.60;99.90
48488;DHT22;34289;48.572;13.378;2023-11-18T07:26:50;1.70;99.90
48488;DHT22;34289;48.572;13.378;2023-11-18T07:29:17;1.80;99.90
48488;DHT22;34289;48.572;13.378;2023-11-18T07:31:42;1.30;99.90
48488;DHT22;34289;48.572;13.378;2023-11-18T07:34:08;1.90;99.90
48488;DHT22;34289;48.572;13.378;2023-11-18T07:36:34;2.10;99.90
48488;DHT22;34289;48.572;13.378;2023-11-18T07:39:00;2.40;99.90
48488;DHT22;34289;48.572;13.378;2023-11-18T07:41:28;3.70;99.90
48488;DHT22;34289;48.572;13.378;2023-11-18T07:43:54;3.60;99.90
48488;DHT22;34289;48.572;13.378;2023-11-18T07:46:21;3.80;99.90
48488;DHT22;34289;48.572;13.378;2023-11-18T07:48:49;4.30;99.90
48488;DHT22;34289;48.572;13.378;2023-11-18T07:51:17;4.90;99.90
48488;DHT22;34289;48.572;13.378;2023-11-18T07:53:43;6.70;99.90
48488;DHT22;34289;48.572;13.378;2023-11-18T07:56:09;8.30;99.90
48488;DHT22;34289;48.572;13.378;2023-11-18T07:58:38;7.60;99.90
48488;DHT22;34289;48.572;13.378;2023-11-18T08:01:04;7.70;99.90
48488;DHT22;34289;48.572;13.378;2023-11-18T08:03:34;6.70;99.90
48488;DHT22;34289;48.572;13.378;2023-11-18T08:06:00;6.00;99.90
48488;DHT22;34289;48.572;13.378;2023-11-18T08:08:27;5.80;99.90
48488;DHT22;34289;48.572;13.378;2023-11-18T08:10:52;5.90;99.90
48488;DHT22;34289;48.572;13.378;2023-11-18T08:13:20;6.70;99.90
48488;DHT22;34289;48.572;13.378;2023-11-18T08:15:46;7.80;99.90
48488;DHT22;34289;48.572;13.378;2023-11-18T08:18:12;9.80;99.90
48488;DHT22;34289;48.572;13.378;2023-11-18T08:20:39;11.60;99.90
48488;DHT22;34289;48.572;13.378;2023-11-18T08:23:05;13.60;99.90
48488;DHT22;34289;48.572;13.378;2023-11-18T08:25:31;14.50;99.90
48488;DHT22;34289;48.572;13.378;2023-11-18T08:30:27;13.60;99.90
48488;DHT22;34289;48.572;13.378;2023-11-18T08:32:53;13.00;99.90
48488;DHT22;34289;48.572;13.378;2023-11-18T08:35:18;11.90;99.90
48488;DHT22;34289;48.572;13.378;2023-11-18T08:37:46;10.70;99.90
48488;DHT22;34289;48.572;13.378;2023-11-18T08:40:13;9.80;99.90
48488;DHT22;34289;48.572;13.378;2023-11-18T08:42:46;10.10;99.90
48488;DHT22;34289;48.572;13.378;2023-11-18T08:47:48;14.00;99.90
48488;DHT22;34289;48.572;13.378;2023-11-18T08:50:15;15.20;99.90
48488;DHT22;34289;48.572;13.378;2023-11-18T08:52:42;16.40;98.40
48488;DHT22;34289;48.572;13.378;2023-11-18T08:55:12;17.30;96.90
48488;DHT22;34289;48.572;13.378;2023-11-18T08:57:49;17.20;96.50
48488;DHT22;34289;48.572;13.378;2023-11-18T09:00:27;17.10;96.40
48488;DHT22;34289;48.572;13.378;2023-11-18T09:03:19;17.50;96.00
48488;DHT22;34289;48.572;13.378;2023-11-18T09:05:58;17.40;96.00
48488;DHT22;34289;48.572;13.378;2023-11-18T09:08:28;17.80;95.70
48488;DHT22;34289;48.572;13.378;2023-11-18T09:11:15;18.60;95.80
48488;DHT22;34289;48.572;13.378;2023-11-18T09:13:45;19.30;94.90
48488;DHT22;34289;48.572;13.378;2023-11-18T09:16:14;20.00;93.40
48488;DHT22;34289;48.572;13.378;2023-11-18T09:18:42;19.80;93.50
48488;DHT22;34289;48.572;13.378;2023-11-18T09:21:13;19.20;94.90
48488;DHT22;34289;48.572;13.378;2023-11-18T09:23:45;17.80;94.90
48488;DHT22;34289;48.572;13.378;2023-11-18T09:26:13;16.40;95.80
48488;DHT22;34289;48.572;13.378;2023-11-18T09:28:40;14.70;97.70
48488;DHT22;34289;48.572;13.378;2023-11-18T09:31:06;13.60;99.70
48488;DHT22;34289;48.572;13.378;2023-11-18T09:33:37;13.40;99.60
48488;DHT22;34289;48.572;13.378;2023-11-18T09:36:06;13.50;99.90
48488;DHT22;34289;48.572;13.378;2023-11-18T09:38:39;13.20;99.90
48488;DHT22;34289;48.572;13.378;2023-11-18T09:41:10;12.50;99.90
48488;DHT22;34289;48.572;13.378;2023-11-18T09:43:40;11.30;99.90
48488;DHT22;34289;48.572;13.378;2023-11-18T09:46:14;10.20;99.90
48488;DHT22;34289;48.572;13.378;2023-11-18T09:51:24;8.40;99.90
48488;DHT22;34289;48.572;13.378;2023-11-18T09:53:51;9.00;99.90
48488;DHT22;34289;48.572;13.378;2023-11-18T09:59:29;7.50;99.90
48488;DHT22;34289;48.572;13.378;2023-11-18T10:01:57;7.70;99.90
48488;DHT22;34289;48.572;13.378;2023-11-18T10:04:24;9.10;99.90
48488;DHT22;34289;48.572;13.378;2023-11-18T10:06:53;10.80;99.90
48488;DHT22;34289;48.572;13.378;2023-11-18T10:09:20;12.70;99.90
48488;DHT22;34289;48.572;13.378;2023-11-18T10:11:54;13.70;99.90
48488;DHT22;34289;48.572;13.378;2023-11-18T10:14:36;12.80;99.90
48488;DHT22;34289;48.572;13.378;2023-11-18T10:17:08;11.50;99.90
48488;DHT22;34289;48.572;13.378;2023-11-18T10:19:57;9.70;99.90
48488;DHT22;34289;48.572;13.378;2023-11-18T10:22:27;9.40;99.90
48488;DHT22;34289;48.572;13.378;2023-11-18T10:24:57;8.60;99.90
48488;DHT22;34289;48.572;13.378;2023-11-18T10:27:27;8.30;99.90
48488;DHT22;34289;48.572;13.378;2023-11-18T10:30:03;8.30;99.90
48488;DHT22;34289;48.572;13.378;2023-11-18T10:32:30;7.60;99.90
48488;DHT22;34289;48.572;13.378;2023-11-18T10:35:00;7.50;99.90
48488;DHT22;34289;48.572;13.378;2023-11-18T10:37:30;7.30;99.90
48488;DHT22;34289;48.572;13.378;2023-11-18T10:39:56;7.40;99.90
48488;DHT22;34289;48.572;13.378;2023-11-18T10:42:26;7.10;99.90
48488;DHT22;34289;48.572;13.378;2023-11-18T10:44:59;7.00;99.90
48488;DHT22;34289;48.572;13.378;2023-11-18T10:47:25;7.00;99.90
48488;DHT22;34289;48.572;13.378;2023-11-18T10:49:54;6.80;99.90
48488;DHT22;34289;48.572;13.378;2023-11-18T10:52:24;6.80;99.90
48488;DHT22;34289;48.572;13.378;2023-11-18T10:55:01;6.80;99.90
48488;DHT22;34289;48.572;13.378;2023-11-18T10:57:33;6.60;99.90
48488;DHT22;34289;48.572;13.378;2023-11-18T11:00:07;6.50;99.90
48488;DHT22;34289;48.572;13.378;2023-11-18T11:02:39;6.70;99.90
48488;DHT22;34289;48.572;13.378;2023-11-18T11:05:07;6.60;99.90
48488;DHT22;34289;48.572;13.378;2023-11-18T11:07:33;6.80;99.90
48488;DHT22;34289;48.572;13.378;2023-11-18T11:10:01;6.70;99.90
48488;DHT22;34289;48.572;13.378;2023-11-18T11:12:33;6.70;99.90
48488;DHT22;34289;48.572;13.378;2023-11-18T11:15:08;7.70;99.90
48488;DHT22;34289;48.572;13.378;2023-11-18T11:17:41;6.90;99.90
48488;DHT22;34289;48.572;13.378;2023-11-18T11:20:13;7.40;99.90
48488;DHT22;34289;48.572;13.378;2023-11-18T11:23:28;6.70;99.90
48488;DHT22;34289;48.572;13.378;2023-11-18T11:29:07;7.00;99.90
48488;DHT22;34289;48.572;13.378;2023-11-18T11:31:41;6.70;99.90
48488;DHT22;34289;48.572;13.378;2023-11-18T11:34:13;7.20;99.90
48488;DHT22;34289;48.572;13.378;2023-11-18T11:36:47;6.60;99.90
48488;DHT22;34289;48.572;13.378;2023-11-18T11:39:16;6.80;99.90
48488;DHT22;34289;48.572;13.378;2023-11-18T11:41:46;6.90;99.90
48488;DHT22;34289;48.572;13.378;2023-11-18T11:44:16;6.70;99.90
48488;DHT22;34289;48.572;13.378;2023-11-18T11:46:46;7.00;99.90
48488;DHT22;34289;48.572;13.378;2023-11-18T11:49:20;6.90;99.90
48488;DHT22;34289;48.572;13.378;2023-11-18T11:54:54;6.90;99.90
48488;DHT22;34289;48.572;13.378;2023-11-18T11:57:22;6.90;99.90
48488;DHT22;34289;48.572;13.378;2023-11-18T12:02:21;6.70;99.90
48488;DHT22;34289;48.572;13.378;2023-11-18T12:04:53;6.60;99.90
48488;DHT22;34289;48.572;13.378;2023-11-18T12:07:21;6.80;99.90
48488;DHT22;34289;48.572;13.378;2023-11-18T12:09:49;6.50;99.90
48488;DHT22;34289;48.572;13.378;2023-11-18T12:12:20;6.80;99.90
48488;DHT22;34289;48.572;13.378;2023-11-18T12:14:59;6.80;99.90
48488;DHT22;34289;48.572;13.378;2023-11-18T12:20:40;6.90;99.90
48488;DHT22;34289;48.572;13.378;2023-11-18T12:23:23;7.20;99.90
48488;DHT22;34289;48.572;13.378;2023-11-18T12:25:51;6.90;99.90
48488;DHT22;34289;48.572;13.378;2023-11-18T12:28:32;7.10;99.90
48488;DHT22;34289;48.572;13.378;2023-11-18T12:31:04;7.10;99.90
48488;DHT22;34289;48.572;13.378;2023-11-18T12:34:01;6.80;99.90
48488;DHT22;34289;48.572;13.378;2023-11-18T12:39:20;7.30;99.90
48488;DHT22;34289;48.572;13.378;2023-11-18T12:42:04;7.40;99.90
48488;DHT22;34289;48.572;13.378;2023-11-18T12:44:37;7.40;99.90
48488;DHT22;34289;48.572;13.378;2023-11-18T12:47:05;7.50;99.90
48488;DHT22;34289;48.572;13.378;2023-11-18T12:49:44;7.40;99.90
48488;DHT22;34289;48.572;13.378;2023-11-18T12:52:15;8.70;99.90
48488;DHT22;34289;48.572;13.378;2023-11-18T12:54:44;7.60;99.90
48488;DHT22;34289;48.572;13.378;2023-11-18T12:57:16;7.60;99.90
48488;DHT22;34289;48.572;13.378;2023-11-18T12:59:42;7.40;99.90
48488;DHT22;34289;48.572;13.378;2023-11-18T13:02:09;7.20;99.90
48488;DHT22;34289;48.572;13.378;2023-11-18T13:04:42;8.00;99.90
48488;DHT22;34289;48.572;13.378;2023-11-18T13:07:11;7.50;99.90
48488;DHT22;34289;48.572;13.378;2023-11-18T13:09:38;7.50;99.90
48488;DHT22;34289;48.572;13.378;2023-11-18T13:12:06;7.50;99.90
48488;DHT22;34289;48.572;13.378;2023-11-18T13:14:35;7.80;99.90
48488;DHT22;34289;48.572;13.378;2023-11-18T13:17:09;7.60;99.90
48488;DHT22;34289;48.572;13.378;2023-11-18T13:19:37;7.70;99.90
48488;DHT22;34289;48.572;13.378;2023-11-18T13:22:08;7.80;99.90
48488;DHT22;34289;48.572;13.378;2023-11-18T13:24:41;7.50;99.90
48488;DHT22;34289;48.572;13.378;2023-11-18T13:27:10;7.40;99.90
48488;DHT22;34289;48.572;13.378;2023-11-18T13:29:38;7.20;99.90
48488;DHT22;34289;48.572;13.378;2023-11-18T13:32:08;6.90;99.90
48488;DHT22;34289;48.572;13.378;2023-11-18T13:34:35;7.40;99.90
48488;DHT22;34289;48.572;13.378;2023-11-18T13:37:04;6.60;99.90
48488;DHT22;34289;48.572;13.378;2023-11-18T13:39:31;6.70;99.90
48488;DHT22;34289;48.572;13.378;2023-11-18T13:41:57;7.50;99.90
48488;DHT22;34289;48.572;13.378;2023-11-18T13:44:36;7.10;99.90
48488;DHT22;34289;48.572;13.378;2023-11-18T13:47:09;8.20;99.90
48488;DHT22;34289;48.572;13.378;2023-11-18T13:49:37;7.40;99.90
48488;DHT22;34289;48.572;13.378;2023-11-18T13:52:06;7.10;99.90
48488;DHT22;34289;48.572;13.378;2023-11-18T13:54:36;7.40;99.90
48488;DHT22;34289;48.572;13.378;2023-11-18T13:57:03;7.50;99.90
48488;DHT22;34289;48.572;13.378;2023-11-18T13:59:29;7.40;99.90
48488;DHT22;34289;48.572;13.378;2023-11-18T14:01:56;7.30;99.90
48488;DHT22;34289;48.572;13.378;2023-11-18T14:04:27;7.30;99.90
48488;DHT22;34289;48.572;13.378;2023-11-18T14:06:53;7.60;99.90
48488;DHT22;34289;48.572;13.378;2023-11-18T14:09:22;7.20;99.90
48488;DHT22;34289;48.572;13.378;2023-11-18T14:11:51;7.20;99.90
48488;DHT22;34289;48.572;13.378;2023-11-18T14:14:16;7.00;99.90
48488;DHT22;34289;48.572;13.378;2023-11-18T14:16:43;7.00;99.90
48488;DHT22;34289;48.572;13.378;2023-11-18T14:19:10;7.80;99.90
48488;DHT22;34289;48.572;13.378;2023-11-18T14:21:36;7.00;99.90
48488;DHT22;34289;48.572;13.378;2023-11-18T14:24:02;6.80;99.90
48488;DHT22;34289;48.572;13.378;2023-11-18T14:26:29;6.70;99.90
48488;DHT22;34289;48.572;13.378;2023-11-18T14:28:58;6.40;99.90
48488;DHT22;34289;48.572;13.378;2023-11-18T14:31:25;7.40;99.90
48488;DHT22;34289;48.572;13.378;2023-11-18T14:33:51;6.20;99.90
48488;DHT22;34289;48.572;13.378;2023-11-18T14:36:17;6.50;99.90
48488;DHT22;34289;48.572;13.378;2023-11-18T14:38:42;6.30;99.90
48488;DHT22;34289;48.572;13.378;2023-11-18T14:41:10;6.40;99.90
48488;DHT22;34289;48.572;13.378;2023-11-18T14:43:36;6.40;99.90
48488;DHT22;34289;48.572;13.378;2023-11-18T14:46:02;6.20;99.90
48488;DHT22;34289;48.572;13.378;2023-11-18T14:48:29;6.00;99.90
48488;DHT22;34289;48.572;13.378;2023-11-18T14:50:55;6.00;99.90
48488;DHT22;34289;48.572;13.378;2023-11-18T14:53:22;5.60;99.90
48488;DHT22;34289;48.572;13.378;2023-11-18T14:55:48;6.00;99.90
48488;DHT22;34289;48.572;13.378;2023-11-18T14:58:14;5.90;99.90
48488;DHT22;34289;48.572;13.378;2023-11-18T15:00:39;6.00;99.90
48488;DHT22;34289;48.572;13.378;2023-11-18T15:03:05;5.70;99.90
48488;DHT22;34289;48.572;13.378;2023-11-18T15:05:31;5.70;99.90
48488;DHT22;34289;48.572;13.378;2023-11-18T15:07:57;5.50;99.90
48488;DHT22;34289;48.572;13.378;2023-11-18T15:10:27;5.60;99.90
48488;DHT22;34289;48.572;13.378;2023-11-18T15:12:57;5.50;99.90
48488;DHT22;34289;48.572;13.378;2023-11-18T15:15:27;5.30;99.90
48488;DHT22;34289;48.572;13.378;2023-11-18T15:18:01;5.30;99.90
48488;DHT22;34289;48.572;13.378;2023-11-18T15:20:30;5.80;99.90
48488;DHT22;34289;48.572;13.378;2023-11-18T15:22:56;4.90;99.90
48488;DHT22;34289;48.572;13.378;2023-11-18T15:25:22;4.90;99.90
48488;DHT22;34289;48.572;13.378;2023-11-18T15:27:48;4.90;99.90
48488;DHT22;34289;48.572;13.378;2023-11-18T15:30:15;5.90;99.90
48488;DHT22;34289;48.572;13.378;2023-11-18T15:32:43;5.00;99.90
48488;DHT22;34289;48.572;13.378;2023-11-18T15:35:10;4.90;99.90
48488;DHT22;34289;48.572;13.378;2023-11-18T15:37:36;4.90;99.90
48488;DHT22;34289;48.572;13.378;2023-11-18T15:40:04;4.40;99.90
48488;DHT22;34289;48.572;13.378;2023-11-18T15:42:38;4.50;99.90
48488;DHT22;34289;48.572;13.378;2023-11-18T15:45:07;4.60;99.90
48488;DHT22;34289;48.572;13.378;2023-11-18T15:47:35;4.30;99.90
48488;DHT22;34289;48.572;13.378;2023-11-18T15:50:02;4.60;99.90
48488;DHT22;34289;48.572;13.378;2023-11-18T15:52:28;4.30;99.90
48488;DHT22;34289;48.572;13.378;2023-11-18T15:54:54;4.30;99.90
48488;DHT22;34289;48.572;13.378;2023-11-18T15:57:19;4.20;99.90
48488;DHT22;34289;48.572;13.378;2023-11-18T15:59:49;4.10;99.90
48488;DHT22;34289;48.572;13.378;2023-11-18T16:02:16;3.90;99.90
48488;DHT22;34289;48.572;13.378;2023-11-18T16:04:41;3.50;99.90
48488;DHT22;34289;48.572;13.378;2023-11-18T16:07:07;3.80;99.90